Time;durP1;ratioP1;P1;durP2;ratioP2;P2;SDS_P1;SDS_P2;PMS_P1;PMS_P2;Temp;Humidity;BMP_temperature;BMP_pressure;BME280_temperature;BME280_humidity;BME280_pressure;Samples;Min_cycle;Max_cycle;Signal;HPM_P1;HPM_P2
2022/10/08 00:01:28;;;;;;;13.52;12.75;;;;;;;11.96;100.00;101735.97;5023103;28;20437;-66
2022/10/08 00:03:55;;;;;;;14.13;13.32;;;;;;;11.94;100.00;101726.50;5019619;28;20037;-67
2022/10/08 00:06:29;;;;;;;12.90;12.20;;;;;;;11.91;100.00;101725.00;5031665;28;20030;-67
2022/10/08 00:09:00;;;;;;;;;;;;;;;11.89;100.00;101721.63;5027539;28;20059;-67
2022/10/08 00:11:29;;;;;;;13.55;12.75;;;;;;;11.82;100.00;101718.75;5026027;28;19920;-67
2022/10/08 00:13:56;;;;;;;13.70;12.95;;;;;;;11.81;100.00;101709.09;5021748;28;20029;-67
2022/10/08 00:16:26;;;;;;;13.20;12.50;;;;;;;11.78;100.00;101719.19;5025066;28;20036;-67
2022/10/08 00:18:53;;;;;;;14.07;13.27;;;;;;;11.79;100.00;101708.41;5020845;28;20025;-67
2022/10/08 00:21:26;;;;;;;13.95;13.15;;;;;;;11.76;100.00;101706.06;5029569;28;20116;-67
2022/10/08 00:23:53;;;;;;;13.80;13.00;;;;;;;11.74;100.00;101705.34;5022282;28;20033;-66
2022/10/08 00:26:23;;;;;;;13.98;13.18;;;;;;;11.78;100.00;101705.91;5023991;28;20037;-66
2022/10/08 00:28:50;;;;;;;13.10;12.40;;;;;;;11.60;100.00;101704.09;5022141;28;20049;-66
2022/10/08 00:31:20;;;;;;;13.25;12.55;;;;;;;11.59;100.00;101707.72;5022402;28;20033;-67
2022/10/08 00:33:50;;;;;;;13.55;12.75;;;;;;;11.75;100.00;101704.38;5032671;28;20021;-66
2022/10/08 00:36:16;;;;;;;13.32;12.63;;;;;;;11.74;100.00;101702.69;5026302;28;20037;-66
2022/10/08 00:38:41;;;;;;;14.05;13.25;;;;;;;11.75;100.00;101698.22;5025558;28;20372;-67
2022/10/08 00:41:20;;;;;;;13.30;12.60;;;;;;;11.68;100.00;101698.03;5027542;28;20025;-66
2022/10/08 00:43:51;;;;;;;13.73;12.93;;;;;;;11.56;100.00;101691.25;5026732;28;20025;-67
2022/10/08 00:46:34;;;;;;;13.88;13.07;;;;;;;11.68;100.00;101695.34;5023796;28;20512;-66
2022/10/08 00:49:11;;;;;;;13.50;12.70;;;;;;;11.73;100.00;101690.41;5025623;28;20115;-66
2022/10/08 00:51:43;;;;;;;13.10;12.40;;;;;;;11.63;100.00;101684.34;5025502;28;20487;-67
2022/10/08 00:54:10;;;;;;;13.30;12.60;;;;;;;11.54;100.00;101679.94;5025279;28;20483;-67
2022/10/08 00:56:38;;;;;;;13.20;12.50;;;;;;;11.48;100.00;101685.88;5024930;28;20025;-65
2022/10/08 00:59:06;;;;;;;12.77;12.07;;;;;;;11.36;100.00;101677.28;5027478;28;20013;-65
2022/10/08 01:01:32;;;;;;;13.15;12.45;;;;;;;11.38;100.00;101674.47;5032476;28;20033;-66
2022/10/08 01:04:03;;;;;;;13.75;12.95;;;;;;;11.40;100.00;101675.16;5024108;28;20029;-66
2022/10/08 01:06:30;;;;;;;13.43;12.68;;;;;;;11.45;100.00;101672.88;5025182;28;20053;-67
2022/10/08 01:09:10;;;;;;;13.57;12.77;;;;;;;11.32;100.00;101673.28;5022872;28;20030;-67
2022/10/08 01:11:46;;;;;;;13.13;12.43;;;;;;;11.27;100.00;101675.53;5026286;28;20029;-67
2022/10/08 01:14:19;;;;;;;12.90;12.20;;;;;;;11.22;100.00;101653.91;5027551;28;20116;-66
2022/10/08 01:17:05;;;;;;;13.60;12.80;;;;;;;11.06;100.00;101663.38;5026606;28;20083;-67
2022/10/08 01:19:43;;;;;;;13.68;12.88;;;;;;;11.30;100.00;101670.75;5026041;28;20060;-67
2022/10/08 01:22:28;;;;;;;14.80;13.90;;;;;;;11.18;100.00;101663.16;5026723;28;20035;-67
2022/10/08 01:28:00;;;;;;;13.57;12.88;;;;;;;11.09;100.00;101670.22;5027231;28;20167;-67
2022/10/08 01:30:28;;;;;;;14.35;13.45;;;;;;;11.12;100.00;101677.03;5023981;28;20119;-66
2022/10/08 01:33:02;;;;;;;13.30;12.60;;;;;;;11.24;100.00;101675.84;5026857;28;20025;-67
2022/10/08 01:35:33;;;;;;;13.30;12.60;;;;;;;11.23;100.00;101672.34;5023303;28;20036;-67
2022/10/08 01:38:03;;;;;;;13.35;12.60;;;;;;;11.23;100.00;101669.69;5021635;28;20029;-67
2022/10/08 01:40:34;;;;;;;13.25;12.52;;;;;;;11.06;100.00;101674.00;5024732;28;20026;-67
2022/10/08 01:43:02;;;;;;;13.23;12.52;;;;;;;11.11;100.00;101670.06;5030205;28;20021;-67
2022/10/08 01:45:34;;;;;;;12.95;12.25;;;;;;;11.00;100.00;101660.47;5027614;28;20057;-67
2022/10/08 01:48:05;;;;;;;13.40;12.63;;;;;;;10.85;100.00;101661.97;5023764;28;20095;-67
2022/10/08 01:50:45;;;;;;;12.82;12.13;;;;;;;11.01;100.00;101667.44;5029150;28;20037;-67
2022/10/08 01:53:14;;;;;;;12.93;12.23;;;;;;;11.00;100.00;101666.63;5026741;28;20021;-68
2022/10/08 01:55:45;;;;;;;13.25;12.50;;;;;;;10.81;100.00;101661.44;5025643;28;20032;-67
2022/10/08 01:58:16;;;;;;;13.43;12.68;;;;;;;10.93;100.00;101664.72;5027245;28;20053;-67
2022/10/08 02:00:42;;;;;;;12.98;12.27;;;;;;;10.87;100.00;101666.16;5029541;28;20033;-67
2022/10/08 02:03:11;;;;;;;12.90;12.20;;;;;;;10.97;100.00;101663.44;5026468;28;20116;-67
2022/10/08 02:05:43;;;;;;;12.80;12.10;;;;;;;10.57;100.00;101656.66;5027773;28;20056;-67
2022/10/08 02:08:09;;;;;;;13.38;12.63;;;;;;;10.69;100.00;101671.41;5026091;28;20033;-68
2022/10/08 02:10:35;;;;;;;13.35;12.63;;;;;;;10.79;100.00;101671.34;5020041;28;20729;-67
2022/10/08 02:13:02;;;;;;;13.88;13.07;;;;;;;10.26;100.00;101665.88;5021315;28;20030;-66
2022/10/08 02:15:59;;;;;;;13.02;12.32;;;;;;;10.48;100.00;101671.66;5021795;28;20360;-66
2022/10/08 02:18:44;;;;;;;13.73;12.93;;;;;;;10.40;100.00;101673.34;5017000;28;20117;-66
2022/10/08 02:21:23;;;;;;;12.93;12.23;;;;;;;10.22;100.00;101676.78;5019562;28;20117;-68
2022/10/08 02:23:56;;;;;;;13.18;12.48;;;;;;;10.40;100.00;101678.66;5020097;28;20047;-66
2022/10/08 02:26:31;;;;;;;13.00;12.30;;;;;;;10.67;100.00;101673.38;5026579;28;21653;-66
2022/10/08 02:29:03;;;;;;;13.07;12.38;;;;;;;10.36;100.00;101679.94;5024992;28;20051;-66
2022/10/08 02:31:47;;;;;;;12.73;12.02;;;;;;;10.36;100.00;101667.53;5024055;28;20033;-66
2022/10/08 02:34:20;;;;;;;13.00;12.30;;;;;;;10.13;100.00;101674.09;5027643;28;20110;-68
2022/10/08 02:36:55;;;;;;;12.80;12.10;;;;;;;10.04;100.00;101681.09;5023307;28;20109;-68
2022/10/08 02:39:25;;;;;;;12.45;11.80;;;;;;;10.09;100.00;101670.09;5026641;28;20087;-68
2022/10/08 02:41:55;;;;;;;12.68;11.98;;;;;;;9.93;100.00;101681.28;5026628;28;20546;-67
2022/10/08 02:44:27;;;;;;;13.88;13.07;;;;;;;9.96;100.00;101660.59;5022303;28;20473;-67
2022/10/08 02:46:57;;;;;;;12.80;12.10;;;;;;;10.05;100.00;101672.16;5025984;28;20088;-66
2022/10/08 02:49:33;;;;;;;12.85;12.15;;;;;;;10.11;100.00;101678.72;5018650;28;20021;-67
2022/10/08 02:52:01;;;;;;;12.82;12.13;;;;;;;10.06;100.00;101673.88;5027990;28;20033;-66
2022/10/08 02:54:32;;;;;;;14.10;13.27;;;;;;;10.01;100.00;101672.63;5026297;28;20028;-67
2022/10/08 02:57:04;;;;;;;14.45;13.55;;;;;;;10.03;100.00;101660.03;5020073;28;20108;-68
2022/10/08 02:59:32;;;;;;;12.82;12.13;;;;;;;9.92;100.00;101669.00;5025081;28;20065;-66
2022/10/08 03:02:02;;;;;;;13.18;12.48;;;;;;;9.93;100.00;101668.03;5020416;28;20030;-67
2022/10/08 03:04:42;;;;;;;13.40;12.60;;;;;;;9.81;100.00;101669.16;5025041;28;20021;-67
2022/10/08 03:07:09;;;;;;;13.13;12.43;;;;;;;9.81;100.00;101675.28;5023617;28;20048;-68
2022/10/08 03:09:42;;;;;;;12.60;11.93;;;;;;;9.78;100.00;101670.28;5027563;28;20534;-67
2022/10/08 03:12:08;;;;;;;13.02;12.32;;;;;;;9.72;100.00;101673.50;5022026;28;20033;-67
2022/10/08 03:14:38;;;;;;;13.60;12.80;;;;;;;9.72;100.00;101670.84;5028812;28;20083;-67
2022/10/08 03:17:09;;;;;;;13.25;12.55;;;;;;;9.85;100.00;101673.22;5025390;28;20034;-67
2022/10/08 03:19:36;;;;;;;13.10;12.40;;;;;;;9.87;100.00;101671.25;5020336;28;20485;-67
2022/10/08 03:22:02;;;;;;;12.90;12.20;;;;;;;10.02;100.00;101664.50;5023278;28;20036;-67
2022/10/08 03:24:28;;;;;;;13.00;12.30;;;;;;;9.90;100.00;101666.47;5017716;28;20029;-67
2022/10/08 03:26:53;;;;;;;12.57;11.90;;;;;;;9.88;100.00;101667.59;5021779;28;20021;-67
2022/10/08 03:29:20;;;;;;;12.63;11.93;;;;;;;9.93;100.00;101665.38;5020366;28;20066;-68
2022/10/08 03:31:48;;;;;;;13.60;12.80;;;;;;;9.97;100.00;101656.97;5026175;28;21630;-67
2022/10/08 03:34:14;;;;;;;13.75;12.95;;;;;;;9.92;100.00;101658.41;5020360;28;20111;-66
2022/10/08 03:36:39;;;;;;;12.70;12.00;;;;;;;9.95;100.00;101663.41;5022295;28;20030;-67
2022/10/08 03:39:05;;;;;;;13.35;12.55;;;;;;;9.82;100.00;101654.91;5018965;28;20384;-66
2022/10/08 03:41:31;;;;;;;12.88;12.18;;;;;;;9.94;100.00;101651.13;5030722;28;20026;-66
2022/10/08 03:43:58;;;;;;;12.73;12.02;;;;;;;9.79;100.00;101641.97;5025027;28;20488;-67
2022/10/08 03:46:24;;;;;;;12.88;12.18;;;;;;;9.90;100.00;101642.63;5023339;28;20069;-67
2022/10/08 03:48:49;;;;;;;12.88;12.18;;;;;;;9.73;100.00;101646.00;5027746;28;20092;-67
2022/10/08 03:51:16;;;;;;;12.50;11.80;;;;;;;9.64;100.00;101650.34;5024693;28;20021;-66
2022/10/08 03:53:42;;;;;;;12.88;12.18;;;;;;;9.40;100.00;101647.28;5025968;28;20431;-66
2022/10/08 03:56:14;;;;;;;12.43;11.77;;;;;;;9.26;100.00;101645.06;5028580;28;20030;-66
2022/10/08 03:58:40;;;;;;;12.82;12.13;;;;;;;9.27;100.00;101646.75;5027607;28;20046;-66
2022/10/08 04:01:14;;;;;;;12.73;12.02;;;;;;;9.48;100.00;101646.59;5027665;28;20038;-66
2022/10/08 04:03:41;;;;;;;13.32;12.52;;;;;;;9.53;100.00;101647.00;5029206;28;20029;-66
2022/10/08 04:06:08;;;;;;;12.80;12.10;;;;;;;9.66;100.00;101643.09;5032175;28;20032;-67
2022/10/08 04:08:34;;;;;;;12.82;12.13;;;;;;;9.38;100.00;101639.47;5025723;28;20135;-67
2022/10/08 04:11:08;;;;;;;13.68;12.88;;;;;;;9.39;100.00;101646.44;5024440;28;20025;-67
2022/10/08 04:13:35;;;;;;;12.50;11.80;;;;;;;9.40;100.00;101637.56;5030369;28;20025;-67
2022/10/08 04:16:03;;;;;;;12.35;11.73;;;;;;;9.29;100.00;101637.69;5029058;28;20064;-67
2022/10/08 04:18:29;;;;;;;12.80;12.10;;;;;;;9.41;100.00;101643.69;5028195;28;20036;-67
2022/10/08 04:20:59;;;;;;;12.93;12.23;;;;;;;9.42;100.00;101642.69;5025089;28;20025;-66
2022/10/08 04:23:25;;;;;;;13.27;12.50;;;;;;;9.53;100.00;101639.88;5029599;28;20104;-67
2022/10/08 04:25:52;;;;;;;12.48;11.80;;;;;;;9.50;100.00;101637.53;5024687;28;20048;-67
2022/10/08 04:28:18;;;;;;;12.30;11.70;;;;;;;9.87;100.00;101640.28;5025600;28;20144;-67
2022/10/08 04:31:01;;;;;;;12.93;12.23;;;;;;;9.83;100.00;101633.56;5025858;28;20021;-67
2022/10/08 04:33:29;;;;;;;12.82;12.13;;;;;;;9.97;100.00;101640.25;5029059;28;20449;-66
2022/10/08 04:35:54;;;;;;;13.88;13.02;;;;;;;10.57;100.00;101635.44;5025172;28;20060;-67
2022/10/08 04:38:21;;;;;;;12.13;11.52;;;;;;;10.66;100.00;101634.56;5026869;28;20021;-67
2022/10/08 04:40:47;;;;;;;12.05;11.45;;;;;;;10.92;100.00;101632.03;5028505;28;20094;-67
2022/10/08 04:43:13;;;;;;;11.88;11.27;;;;;;;10.92;100.00;101628.53;5028281;28;20029;-67
2022/10/08 04:45:45;;;;;;;12.65;11.95;;;;;;;10.57;100.00;101624.81;5021734;28;20085;-67
2022/10/08 04:48:13;;;;;;;11.75;11.15;;;;;;;10.67;100.00;101625.63;5025339;28;20026;-67
2022/10/08 04:50:39;;;;;;;12.73;12.02;;;;;;;11.18;100.00;101634.78;5028217;28;20033;-67
2022/10/08 04:53:05;;;;;;;13.27;12.50;;;;;;;10.98;100.00;101630.59;5022652;28;20037;-67
2022/10/08 04:55:31;;;;;;;12.50;11.82;;;;;;;11.31;100.00;101632.59;5022264;28;20033;-66
2022/10/08 04:57:57;;;;;;;12.23;11.63;;;;;;;11.81;100.00;101629.34;5028803;28;20032;-67
2022/10/08 05:00:22;;;;;;;12.63;11.93;;;;;;;13.45;100.00;101625.47;5027556;28;20687;-67
2022/10/08 05:02:48;;;;;;;12.10;11.50;;;;;;;14.57;100.00;101612.06;5019705;28;20079;-67
2022/10/08 05:05:14;;;;;;;11.82;11.23;;;;;;;16.56;100.00;101599.25;5022715;28;20413;-67
2022/10/08 05:07:39;;;;;;;11.43;10.90;;;;;;;17.22;100.00;101605.38;5029589;28;20030;-67
2022/10/08 05:10:06;;;;;;;11.88;11.27;;;;;;;19.12;100.00;101605.84;5022840;28;20025;-67
2022/10/08 05:12:31;;;;;;;11.27;10.77;;;;;;;19.70;100.00;101606.09;5027836;28;20029;-65
2022/10/08 05:14:56;;;;;;;13.30;12.60;;;;;;;20.54;100.00;101605.28;5024984;28;20419;-66
2022/10/08 05:17:22;;;;;;;11.80;11.20;;;;;;;20.77;100.00;101609.31;5025630;28;20025;-66
2022/10/08 05:19:47;;;;;;;12.23;11.63;;;;;;;20.92;100.00;101605.28;5023016;28;20037;-67
2022/10/08 05:22:13;;;;;;;11.48;10.98;;;;;;;22.05;100.00;101610.59;5022086;28;20025;-66
2022/10/08 05:24:38;;;;;;;11.70;11.20;;;;;;;22.54;100.00;101608.81;5027334;28;20115;-67
2022/10/08 05:27:04;;;;;;;11.60;11.10;;;;;;;22.94;94.70;101608.31;5026154;28;20472;-66
2022/10/08 05:29:30;;;;;;;11.65;11.15;;;;;;;23.44;93.55;101614.19;5023023;28;20103;-67
2022/10/08 05:31:56;;;;;;;11.60;11.10;;;;;;;23.62;92.47;101612.47;5026256;28;20028;-67
2022/10/08 05:34:21;;;;;;;11.43;10.93;;;;;;;23.55;91.83;101617.97;5020588;28;20104;-67
2022/10/08 05:36:47;;;;;;;11.88;11.35;;;;;;;24.02;87.89;101609.03;5025400;28;20393;-67
2022/10/08 05:39:12;;;;;;;11.57;11.07;;;;;;;24.57;81.08;101619.44;5029877;28;20045;-67
2022/10/08 05:41:39;;;;;;;12.05;11.50;;;;;;;25.65;80.05;101623.00;5029665;28;20479;-67
2022/10/08 05:44:05;;;;;;;11.50;11.00;;;;;;;25.23;78.41;101613.34;5023535;28;20033;-67
2022/10/08 05:46:34;;;;;;;11.77;11.27;;;;;;;25.76;73.81;101617.47;5027968;28;20049;-67
2022/10/08 05:49:01;;;;;;;11.73;11.23;;;;;;;26.08;72.18;101620.41;5026923;28;20627;-68
2022/10/08 05:51:28;;;;;;;12.35;11.75;;;;;;;25.90;68.10;101616.06;5025762;28;20034;-67
2022/10/08 05:53:55;;;;;;;11.85;11.35;;;;;;;26.53;65.68;101616.63;5021519;28;20400;-67
2022/10/08 05:56:23;;;;;;;12.10;11.55;;;;;;;26.14;65.79;101613.94;5021891;28;20033;-68
2022/10/08 05:58:49;;;;;;;11.45;10.95;;;;;;;26.66;67.05;101616.25;5026790;28;20396;-68
2022/10/08 06:01:20;;;;;;;11.70;11.20;;;;;;;27.91;59.68;101612.41;5022574;28;20522;-68
2022/10/08 06:03:51;;;;;;;11.43;10.93;;;;;;;27.68;57.69;101614.47;5018071;28;20582;-68
2022/10/08 06:06:17;;;;;;;11.50;11.00;;;;;;;26.86;59.58;101612.91;5020490;28;20032;-67
2022/10/08 06:08:44;;;;;;;12.00;11.50;;;;;;;27.41;56.17;101619.97;5022089;28;20541;-67
2022/10/08 06:11:09;;;;;;;11.95;11.45;;;;;;;28.13;54.32;101615.84;5024498;28;20473;-67
2022/10/08 06:13:35;;;;;;;11.43;10.93;;;;;;;27.68;55.90;101613.63;5023390;28;20172;-67
2022/10/08 06:16:04;;;;;;;10.90;10.40;;;;;;;25.78;64.58;101617.22;5022692;28;20388;-68
2022/10/08 06:18:32;;;;;;;11.48;10.98;;;;;;;26.05;68.88;101620.88;5056144;28;20405;-67
2022/10/08 06:21:13;;;;;;;11.90;11.40;;;;;;;25.70;66.57;101618.44;5022002;28;20110;-68
2022/10/08 06:23:43;;;;;;;11.52;11.02;;;;;;;27.97;57.10;101612.19;5017494;28;20148;-66
2022/10/08 06:26:09;;;;;;;11.40;10.90;;;;;;;28.33;55.38;101615.94;5024378;28;20555;-68
2022/10/08 06:28:37;;;;;;;11.75;11.25;;;;;;;27.96;55.07;101620.63;5025918;28;20108;-67
2022/10/08 06:31:04;;;;;;;12.40;11.80;;;;;;;28.38;52.60;101617.06;5024248;28;20430;-67
2022/10/08 06:33:31;;;;;;;11.30;10.80;;;;;;;28.59;52.01;101610.56;5024327;28;20114;-68
2022/10/08 06:36:05;;;;;;;12.00;11.50;;;;;;;28.51;51.69;101617.38;5019841;28;20037;-67
2022/10/08 06:38:31;;;;;;;11.52;11.02;;;;;;;27.58;54.89;101614.38;5025689;28;20083;-67
2022/10/08 06:40:57;;;;;;;11.50;11.00;;;;;;;29.90;47.51;101606.25;5018505;28;20033;-68
2022/10/08 06:43:23;;;;;;;11.60;11.10;;;;;;;29.65;47.92;101609.03;5019864;28;20029;-67
2022/10/08 06:45:48;;;;;;;11.80;11.30;;;;;;;29.40;47.35;101597.00;5024867;28;20531;-67
2022/10/08 06:48:14;;;;;;;11.70;11.20;;;;;;;29.05;48.86;101595.09;5025803;28;20029;-68
2022/10/08 06:50:40;;;;;;;11.50;11.00;;;;;;;27.81;50.39;101592.19;5026836;28;20455;-67
2022/10/08 06:53:09;;;;;;;12.20;11.70;;;;;;;28.97;49.87;101590.19;5022283;28;20460;-68
2022/10/08 06:55:35;;;;;;;12.50;11.90;;;;;;;28.74;49.08;101583.28;5023837;28;20111;-68
2022/10/08 06:58:01;;;;;;;12.40;11.80;;;;;;;28.81;49.59;101586.59;5021188;28;20041;-68
2022/10/08 07:00:27;;;;;;;12.73;12.13;;;;;;;29.99;46.31;101593.63;5023682;28;20122;-67
2022/10/08 07:02:53;;;;;;;11.80;11.30;;;;;;;28.98;49.20;101582.81;5011341;28;20140;-67
2022/10/08 07:05:18;;;;;;;12.40;11.80;;;;;;;29.02;48.89;101592.09;5027777;28;20025;-68
2022/10/08 07:07:44;;;;;;;12.10;11.60;;;;;;;29.05;50.30;101588.81;5022102;28;20038;-67
2022/10/08 07:10:10;;;;;;;11.77;11.27;;;;;;;30.05;46.68;101585.41;5016388;28;20147;-67
2022/10/08 07:12:36;;;;;;;12.13;11.63;;;;;;;30.04;47.65;101578.28;5023395;28;20030;-67
2022/10/08 07:15:01;;;;;;;12.35;11.77;;;;;;;30.32;45.16;101579.56;5024196;28;20026;-68
2022/10/08 07:17:30;;;;;;;11.68;11.18;;;;;;;29.92;45.95;101581.34;5025326;28;20025;-66
2022/10/08 07:19:56;;;;;;;11.90;11.40;;;;;;;30.35;46.21;101581.75;5008722;28;20021;-67
2022/10/08 07:22:21;;;;;;;11.95;11.45;;;;;;;29.44;48.00;101578.13;5027633;28;20496;-67
2022/10/08 07:24:47;;;;;;;11.60;11.10;;;;;;;30.39;44.58;101575.41;5019082;28;20037;-67
2022/10/08 07:27:13;;;;;;;11.90;11.40;;;;;;;29.53;46.95;101581.19;5023984;28;20025;-67
2022/10/08 07:29:38;;;;;;;11.90;11.40;;;;;;;29.16;46.16;101569.44;5020098;28;20034;-68
2022/10/08 07:32:03;;;;;;;11.55;11.05;;;;;;;29.86;44.32;101576.97;5025149;28;20025;-69
2022/10/08 07:34:29;;;;;;;11.77;11.27;;;;;;;29.97;44.91;101564.91;5026889;28;20052;-68
2022/10/08 07:36:55;;;;;;;11.45;10.95;;;;;;;27.81;48.77;101570.38;5019946;28;20084;-68
2022/10/08 07:39:20;;;;;;;11.40;10.90;;;;;;;30.06;43.34;101565.16;5024919;28;20380;-67
2022/10/08 07:41:47;;;;;;;11.98;11.48;;;;;;;29.40;45.07;101557.94;5023246;28;20539;-70
2022/10/08 07:44:14;;;;;;;11.80;11.30;;;;;;;30.84;39.98;101562.53;5022952;28;20064;-68
2022/10/08 07:46:48;;;;;;;11.70;11.20;;;;;;;28.38;44.05;101559.72;5020626;28;20046;-68
2022/10/08 07:49:15;;;;;;;11.80;11.30;;;;;;;29.86;41.96;101563.31;5019866;28;20033;-68
2022/10/08 07:51:41;;;;;;;11.38;10.88;;;;;;;28.86;45.04;101558.44;5018719;28;20030;-68
2022/10/08 07:54:07;;;;;;;11.75;11.25;;;;;;;30.67;42.59;101553.91;5024471;28;20036;-65
2022/10/08 07:56:34;;;;;;;11.63;11.13;;;;;;;31.05;40.21;101547.56;5022733;28;20033;-65
2022/10/08 07:59:01;;;;;;;11.48;10.98;;;;;;;28.83;43.29;101542.59;5024186;28;20164;-65
2022/10/08 08:01:28;;;;;;;11.98;11.48;;;;;;;28.95;43.04;101540.47;5021781;28;20030;-66
2022/10/08 08:03:57;;;;;;;11.85;11.35;;;;;;;28.94;45.17;101532.53;5022367;28;20065;-66
2022/10/08 08:06:23;;;;;;;11.40;10.90;;;;;;;28.81;45.12;101533.88;5020871;28;20090;-66
2022/10/08 08:08:49;;;;;;;11.70;11.20;;;;;;;28.35;45.47;101526.44;5024190;28;20038;-66
2022/10/08 08:11:17;;;;;;;12.88;12.27;;;;;;;28.90;43.60;101530.34;5021137;28;20334;-67
2022/10/08 08:13:43;;;;;;;12.00;11.50;;;;;;;28.10;46.11;101526.31;5021476;28;20095;-67
2022/10/08 08:16:11;;;;;;;11.88;11.38;;;;;;;28.13;43.81;101525.81;5024720;28;20034;-67
2022/10/08 08:18:39;;;;;;;11.95;11.45;;;;;;;28.21;44.08;101527.19;5018852;28;20104;-67
2022/10/08 08:21:07;;;;;;;12.70;12.10;;;;;;;29.08;42.67;101517.22;5019718;28;20036;-65
2022/10/08 08:23:38;;;;;;;12.00;11.50;;;;;;;26.57;46.31;101510.78;5022156;28;20097;-67
2022/10/08 08:26:06;;;;;;;11.73;11.23;;;;;;;28.72;43.16;101511.75;5020723;28;20033;-66
2022/10/08 08:28:31;;;;;;;11.90;11.40;;;;;;;27.66;41.50;101510.28;5028499;28;20029;-68
2022/10/08 08:31:18;;;;;;;13.05;12.45;;;;;;;28.55;42.50;101508.44;5019807;28;20037;-68
2022/10/08 08:33:51;;;;;;;12.32;11.75;;;;;;;27.96;41.08;101506.91;5023266;28;20547;-67
2022/10/08 08:36:18;;;;;;;12.10;11.60;;;;;;;29.79;36.91;101495.22;5022086;28;20487;-67
2022/10/08 08:38:44;;;;;;;12.70;12.10;;;;;;;29.53;37.08;101508.19;5019878;28;20511;-67
2022/10/08 08:41:47;;;;;;;13.52;12.93;;;;;;;25.74;40.82;101510.91;5021850;28;20045;-67
2022/10/08 08:44:17;;;;;;;13.47;12.87;;;;;;;25.62;42.15;101512.88;5020950;28;20063;-67
2022/10/08 08:46:47;;;;;;;13.32;12.73;;;;;;;27.49;38.11;101501.47;5023386;28;20175;-66
2022/10/08 08:49:38;;;;;;;13.32;12.73;;;;;;;27.53;37.21;101491.66;5019811;28;20025;-68
2022/10/08 08:52:05;;;;;;;12.43;11.82;;;;;;;27.80;37.22;101483.38;5021499;28;20104;-67
2022/10/08 08:54:31;;;;;;;12.57;11.98;;;;;;;26.99;37.78;101489.13;5023376;28;20021;-67
2022/10/08 08:57:20;;;;;;;13.23;12.63;;;;;;;26.71;35.37;101490.25;5023227;28;20063;-67
2022/10/08 08:59:50;;;;;;;12.52;11.93;;;;;;;26.83;35.17;101484.63;5010235;28;20107;-67
2022/10/08 09:02:24;;;;;;;13.10;12.50;;;;;;;26.47;36.57;101476.16;5022027;28;20037;-68
2022/10/08 09:04:56;;;;;;;13.15;12.55;;;;;;;25.26;40.34;101487.94;5021726;28;20029;-68
2022/10/08 09:07:25;;;;;;;12.05;11.50;;;;;;;27.01;36.00;101473.31;5021403;28;20033;-67
2022/10/08 09:09:54;;;;;;;11.98;11.45;;;;;;;24.80;38.75;101489.06;5020982;28;20456;-67
2022/10/08 09:12:35;;;;;;;12.30;11.70;;;;;;;25.41;38.72;101481.06;5019016;28;20037;-68
2022/10/08 09:15:01;;;;;;;13.02;12.43;;;;;;;24.88;37.65;101464.22;5020922;28;20387;-67
2022/10/08 09:17:34;;;;;;;13.77;13.07;;;;;;;27.38;35.75;101451.53;5018330;28;20029;-68
2022/10/08 09:20:00;;;;;;;13.50;12.88;;;;;;;25.23;38.80;101455.03;5015473;28;20022;-68
2022/10/08 09:22:29;;;;;;;12.18;11.57;;;;;;;23.56;41.48;101462.50;5019074;28;20033;-67
2022/10/08 09:25:01;;;;;;;13.10;12.50;;;;;;;22.92;46.67;101452.66;5020277;28;20111;-66
2022/10/08 09:27:51;;;;;;;13.02;12.43;;;;;;;23.74;45.34;101458.03;5022113;28;20045;-67
2022/10/08 09:30:36;;;;;;;12.13;11.52;;;;;;;22.59;48.51;101462.09;5023806;28;20021;-66
2022/10/08 09:33:11;;;;;;;13.23;12.52;;;;;;;22.53;50.60;101450.31;5024062;28;20380;-66
2022/10/08 09:35:43;;;;;;;12.73;12.13;;;;;;;22.59;49.48;101448.56;5028615;28;20037;-66
2022/10/08 09:38:36;;;;;;;13.25;12.55;;;;;;;22.42;52.34;101444.88;5020337;28;20104;-66
2022/10/08 09:41:08;;;;;;;12.68;12.07;;;;;;;22.94;51.75;101443.25;5024914;28;20037;-65
2022/10/08 09:43:34;;;;;;;13.65;12.95;;;;;;;23.01;51.25;101440.44;5019077;28;20064;-65
2022/10/08 09:46:10;;;;;;;12.98;12.27;;;;;;;21.68;59.25;101430.66;5022131;28;20123;-66
2022/10/08 09:48:36;;;;;;;14.55;13.75;;;;;;;22.04;60.87;101437.91;5013081;28;20030;-66
2022/10/08 09:51:12;;;;;;;13.75;13.02;;;;;;;22.15;61.03;101425.50;5020669;28;20593;-66
2022/10/08 09:53:42;;;;;;;13.05;12.35;;;;;;;21.50;64.78;101434.19;5024399;28;20025;-64
2022/10/08 09:56:09;;;;;;;12.75;12.07;;;;;;;21.93;69.24;101422.44;5023590;28;20115;-67
2022/10/08 09:58:47;;;;;;;14.15;13.35;;;;;;;21.77;69.67;101413.94;5020477;28;20419;-66
2022/10/08 10:01:15;;;;;;;13.05;12.35;;;;;;;21.80;68.52;101413.47;5021496;28;20034;-67
2022/10/08 10:03:53;;;;;;;12.98;12.27;;;;;;;20.25;76.00;101406.38;5021316;28;20025;-65
2022/10/08 10:06:27;;;;;;;13.00;12.30;;;;;;;20.40;81.30;101401.50;5017242;28;20037;-66
2022/10/08 10:09:09;;;;;;;13.60;12.80;;;;;;;21.16;79.31;101403.19;5021885;28;20120;-67
2022/10/08 10:11:46;;;;;;;13.98;13.18;;;;;;;20.51;83.02;101398.16;5021321;28;20025;-66
2022/10/08 10:14:21;;;;;;;12.60;11.98;;;;;;;20.29;84.58;101394.97;5020694;28;20022;-66
2022/10/08 10:16:53;;;;;;;12.38;11.77;;;;;;;21.03;81.91;101390.66;5021313;28;20078;-66
2022/10/08 10:19:23;;;;;;;12.80;12.10;;;;;;;21.18;80.79;101387.59;5017350;28;20113;-66
2022/10/08 10:22:13;;;;;;;12.63;12.00;;;;;;;20.47;86.09;101391.53;5024083;28;20110;-65
2022/10/08 10:25:03;;;;;;;13.00;12.30;;;;;;;20.58;85.87;101390.84;5020924;28;20042;-66
2022/10/08 10:27:41;;;;;;;12.90;12.20;;;;;;;20.31;86.70;101384.78;5021446;28;20029;-66
2022/10/08 10:30:22;;;;;;;12.60;11.98;;;;;;;19.66;90.57;101372.53;5017047;28;20142;-66
2022/10/08 10:33:05;;;;;;;12.55;11.95;;;;;;;20.73;86.62;101368.13;5016896;28;20044;-66
2022/10/08 10:35:34;;;;;;;12.90;12.20;;;;;;;21.07;84.86;101353.25;5025904;28;20083;-66
2022/10/08 10:38:10;;;;;;;12.82;12.13;;;;;;;21.20;85.86;101359.31;5021599;28;20029;-66
2022/10/08 10:40:44;;;;;;;12.75;12.05;;;;;;;21.13;85.97;101355.06;5020191;28;20079;-65
2022/10/08 10:43:48;;;;;;;12.93;12.23;;;;;;;20.65;87.52;101358.44;5018000;28;20527;-67
2022/10/08 10:46:16;;;;;;;12.80;12.10;;;;;;;20.31;89.11;101352.44;5019969;28;20447;-65
2022/10/08 10:48:42;;;;;;;13.27;12.57;;;;;;;20.62;88.25;101348.06;5021265;28;20475;-65
2022/10/08 10:51:39;;;;;;;12.38;11.77;;;;;;;20.79;89.79;101340.28;5020804;28;20053;-66
2022/10/08 10:54:32;;;;;;;12.25;11.65;;;;;;;20.68;88.94;101331.84;5021664;28;20033;-67
2022/10/08 10:57:04;;;;;;;13.50;12.80;;;;;;;20.81;87.00;101322.81;5019451;28;20803;-66
2022/10/08 10:59:46;;;;;;;12.80;12.10;;;;;;;20.80;87.90;101320.34;5022109;28;20026;-66
2022/10/08 11:02:32;;;;;;;12.32;11.73;;;;;;;20.89;89.50;101314.44;5024579;28;20504;-65
2022/10/08 11:05:09;;;;;;;12.30;11.70;;;;;;;20.96;90.58;101303.56;5022489;28;20038;-66
2022/10/08 11:07:51;;;;;;;12.77;12.07;;;;;;;21.31;88.48;101294.91;5021427;28;20507;-65
2022/10/08 11:10:36;;;;;;;12.50;11.90;;;;;;;20.85;89.19;101301.59;5024525;28;20057;-65
2022/10/08 11:13:37;;;;;;;12.00;11.40;;;;;;;19.67;90.76;101296.94;5019257;28;20444;-65
2022/10/08 11:16:22;;;;;;;12.40;11.80;;;;;;;20.66;87.88;101290.81;4985515;28;20072;-65
2022/10/08 11:18:53;;;;;;;12.90;12.20;;;;;;;21.37;85.18;101281.31;5022446;28;20091;-64
2022/10/08 11:21:30;;;;;;;12.48;11.82;;;;;;;20.39;87.38;101281.28;5020961;28;20038;-64
2022/10/08 11:24:13;;;;;;;12.25;11.65;;;;;;;20.58;85.85;101276.81;5026996;28;20393;-65
2022/10/08 11:27:11;;;;;;;12.75;12.05;;;;;;;21.08;85.05;101268.56;5022904;28;20049;-66